Time;durP1;ratioP1;P1;durP2;ratioP2;P2;SDS_P1;SDS_P2;PMS_P1;PMS_P2;Temp;Humidity;BMP_temperature;BMP_pressure;BME280_temperature;BME280_humidity;BME280_pressure;Samples;Min_cycle;Max_cycle;Signal;HPM_P1;HPM_P2
2022/10/17 00:02:22;;;;;;;;;16.00;12.50;;;;;19.84;65.80;100866.72;5087792;27;71112;-45
2022/10/17 00:04:48;;;;;;;;;16.25;11.00;;;;;19.85;65.56;100873.75;5083190;27;45440;-43
2022/10/17 00:07:13;;;;;;;;;13.50;11.00;;;;;19.85;65.62;100873.75;5096866;27;48466;-46
2022/10/17 00:09:42;;;;;;;;;12.25;10.00;;;;;19.86;65.57;100885.22;5089782;27;45509;-45
2022/10/17 00:12:07;;;;;;;;;12.50;11.00;;;;;19.85;65.91;100887.03;5100998;27;46809;-43
2022/10/17 00:14:33;;;;;;;;;12.50;9.75;;;;;19.85;65.74;100875.56;5088301;27;66248;-45
2022/10/17 00:16:58;;;;;;;;;12.25;11.75;;;;;19.85;66.05;100873.75;5084726;27;45244;-44
2022/10/17 00:19:24;;;;;;;;;10.25;9.25;;;;;19.86;66.07;100879.91;5096943;27;45141;-43
2022/10/17 00:21:49;;;;;;;;;10.75;9.25;;;;;19.86;65.74;100885.22;5090468;27;47838;-45
2022/10/17 00:24:14;;;;;;;;;12.00;12.00;;;;;19.86;65.61;100882.56;5101095;27;45512;-45
2022/10/17 00:26:40;;;;;;;;;14.00;10.25;;;;;19.86;65.53;100883.41;5092081;27;64803;-44
2022/10/17 00:29:05;;;;;;;;;11.00;10.00;;;;;19.87;65.60;100877.16;5095971;27;67035;-46
2022/10/17 00:31:30;;;;;;;;;13.75;10.00;;;;;19.87;66.04;100881.63;5098865;27;71658;-44
2022/10/17 00:33:56;;;;;;;;;16.75;11.75;;;;;19.89;65.85;100895.66;5091933;27;45281;-45
2022/10/17 00:36:23;;;;;;;;;12.00;9.50;;;;;19.88;65.53;100886.84;5092486;27;45461;-44
2022/10/17 00:38:52;;;;;;;;;10.25;9.75;;;;;19.89;65.78;100893.00;5079573;27;45399;-45
2022/10/17 00:41:19;;;;;;;;;14.00;11.00;;;;;19.90;65.85;100897.34;5092364;27;46204;-45
2022/10/17 00:43:49;;;;;;;;;15.00;11.75;;;;;19.90;65.29;100897.34;5088716;27;45355;-43
2022/10/17 00:46:14;;;;;;;;;10.50;10.00;;;;;19.90;65.67;100906.19;5097320;27;45323;-45
2022/10/17 00:48:40;;;;;;;;;13.75;12.25;;;;;19.92;65.13;100908.75;5091124;27;73101;-45
2022/10/17 00:51:05;;;;;;;;;18.25;14.25;;;;;19.90;65.80;100903.53;5099401;27;46124;-45
2022/10/17 00:53:31;;;;;;;;;14.00;11.00;;;;;19.92;65.31;100895.47;5101018;27;45210;-45
2022/10/17 00:55:57;;;;;;;;;10.25;9.50;;;;;19.91;65.50;100891.94;5087574;27;68108;-46
2022/10/17 00:58:22;;;;;;;;;11.75;9.50;;;;;19.92;65.21;100891.00;5097553;27;67043;-47
2022/10/17 01:00:47;;;;;;;;;10.50;9.25;;;;;19.92;65.33;100887.50;5089096;27;62424;-44
2022/10/17 01:03:13;;;;;;;;;15.00;10.75;;;;;19.92;65.14;100900.78;5099002;27;68959;-45
2022/10/17 01:05:40;;;;;;;;;14.50;11.00;;;;;19.93;65.14;100889.19;5094681;27;66346;-44
2022/10/17 01:08:06;;;;;;;;;8.00;8.00;;;;;19.93;65.41;100902.47;5097832;27;45406;-45
2022/10/17 01:10:37;;;;;;;;;10.00;10.00;;;;;19.94;65.32;100900.66;5076985;27;45472;-43
2022/10/17 01:13:05;;;;;;;;;10.00;9.75;;;;;19.95;64.87;100908.53;5093115;27;45321;-46
2022/10/17 01:15:42;;;;;;;;;7.50;6.00;;;;;19.95;64.89;100897.91;5085511;27;45279;-48
2022/10/17 01:18:39;;;;;;;;;9.25;9.25;;;;;19.94;64.86;100890.03;5081179;27;45546;-49
2022/10/17 01:21:14;;;;;;;;;11.50;9.25;;;;;19.95;64.77;100889.09;5088514;27;47210;-45
2022/10/17 01:23:42;;;;;;;;;9.75;8.50;;;;;19.95;64.71;100905.03;5092295;27;45347;-45
2022/10/17 01:26:16;;;;;;;;;11.00;9.25;;;;;19.95;64.68;100899.72;5095201;27;45300;-47
2022/10/17 01:29:16;;;;;;;;;9.25;7.00;;;;;19.94;64.95;100906.84;5073884;28;46262;-45
2022/10/17 01:31:46;;;;;;;;;10.50;9.25;;;;;19.92;64.95;100906.94;5035109;28;45514;-43
2022/10/17 01:34:19;;;;;;;;;10.75;9.00;;;;;19.94;64.63;100909.50;5069344;27;45871;-44
2022/10/17 01:37:13;;;;;;;;;8.50;7.75;;;;;19.94;64.42;100914.81;5093657;27;45266;-43
2022/10/17 01:39:47;;;;;;;;;13.50;10.25;;;;;19.94;64.71;100914.81;5093371;27;45316;-44
2022/10/17 01:42:28;;;;;;;;;7.75;7.75;;;;;19.93;64.56;100905.13;5057142;27;47453;-45
2022/10/17 01:45:06;;;;;;;;;9.25;9.25;;;;;19.93;64.59;100913.09;5070462;27;45344;-45
2022/10/17 01:47:32;;;;;;;;;8.75;8.00;;;;;19.91;64.40;100912.34;5093671;27;45464;-44
2022/10/17 01:50:22;;;;;;;;;8.75;8.75;;;;;19.90;64.31;100914.16;5071885;27;45384;-45
2022/10/17 01:52:54;;;;;;;;;10.00;8.00;;;;;19.93;63.97;100921.06;5079033;27;45711;-46
2022/10/17 01:55:30;;;;;;;;;11.00;7.00;;;;;19.92;63.76;100909.59;5066602;28;45348;-42
2022/10/17 01:58:05;;;;;;;;;12.75;7.75;;;;;19.92;64.10;100914.06;5082000;27;45351;-46
2022/10/17 02:00:31;;;;;;;;;9.00;7.25;;;;;19.91;64.27;100918.50;5084037;27;45311;-46
2022/10/17 02:03:06;;;;;;;;;8.50;8.50;;;;;19.91;63.73;100922.97;5072709;27;59392;-48
2022/10/17 02:05:35;;;;;;;;;8.75;7.25;;;;;19.90;63.76;100924.78;5099462;27;45719;-43
2022/10/17 02:08:01;;;;;;;;;8.00;6.75;;;;;19.91;64.21;100923.81;5075199;28;45452;-44
2022/10/17 02:10:36;;;;;;;;;7.00;7.00;;;;;19.91;64.09;100917.66;5092444;27;72537;-43
2022/10/17 02:13:12;;;;;;;;;7.50;7.50;;;;;19.92;63.57;100917.56;5099557;27;45457;-47
2022/10/17 02:15:44;;;;;;;;;5.00;4.25;;;;;19.91;63.58;100912.34;5066518;27;45423;-45
2022/10/17 02:18:35;;;;;;;;;7.50;6.25;;;;;19.90;63.73;100915.94;5092533;27;45476;-49
2022/10/17 02:21:18;;;;;;;;;8.00;6.75;;;;;19.89;63.84;100923.06;5071245;27;45762;-47
2022/10/17 02:24:16;;;;;;;;;8.00;7.00;;;;;19.90;63.56;100915.94;5081587;27;45347;-43
2022/10/17 02:26:53;;;;;;;;;10.25;8.00;;;;;19.90;63.33;100911.50;5097012;27;45244;-45
2022/10/17 02:29:21;;;;;;;;;8.00;6.25;;;;;19.90;63.17;100911.50;5101506;27;45511;-50
2022/10/17 02:32:06;;;;;;;;;7.00;7.00;;;;;19.89;63.58;100907.13;5072178;28;45360;-45
2022/10/17 02:34:49;;;;;;;;;7.00;7.00;;;;;19.88;63.50;100901.91;5075672;27;46177;-44
2022/10/17 02:37:20;;;;;;;;;8.50;5.75;;;;;19.88;63.39;100908.09;5074418;27;45771;-46
2022/10/17 02:39:46;;;;;;;;;9.00;7.25;;;;;19.88;63.13;100899.25;5081177;28;45516;-48
2022/10/17 02:42:13;;;;;;;;;5.50;5.00;;;;;19.89;63.13;100900.97;5060790;27;69384;-44
2022/10/17 02:44:43;;;;;;;;;6.50;5.75;;;;;19.89;63.26;100898.31;5092674;27;75987;-48
2022/10/17 02:47:20;;;;;;;;;7.00;6.50;;;;;19.88;63.30;100902.78;5078411;27;45846;-46
2022/10/17 02:49:50;;;;;;;;;8.25;6.50;;;;;19.87;63.02;100901.06;5072792;27;45468;-49
2022/10/17 02:52:42;;;;;;;;;5.75;5.00;;;;;19.86;62.78;100912.63;5084384;27;45293;-44
2022/10/17 02:55:30;;;;;;;;;7.00;6.25;;;;;19.88;62.83;100915.19;5068060;27;45356;-45
2022/10/17 02:58:00;;;;;;;;;5.75;5.75;;;;;19.86;63.03;100920.59;5076838;27;45719;-46
2022/10/17 03:00:25;;;;;;;;;9.75;6.25;;;;;19.87;63.03;100926.78;5070784;27;45404;-47
2022/10/17 03:02:52;;;;;;;;;8.75;7.50;;;;;19.88;63.41;100926.69;5093011;27;45374;-46
2022/10/17 03:05:27;;;;;;;;;7.00;6.25;;;;;19.88;63.22;100924.03;5101367;27;46272;-45
2022/10/17 03:07:53;;;;;;;;;8.25;6.00;;;;;19.90;63.22;100916.81;5097468;27;45639;-42
2022/10/17 03:10:19;;;;;;;;;8.00;6.00;;;;;19.87;63.20;100911.69;5101759;27;45245;-45
2022/10/17 03:12:44;;;;;;;;;7.25;7.00;;;;;19.86;63.25;100917.94;5101460;27;45178;-45
2022/10/17 03:15:10;;;;;;;;;5.75;5.00;;;;;19.86;63.06;100915.28;5102367;27;45427;-46
2022/10/17 03:17:36;;;;;;;;;8.25;5.25;;;;;19.84;63.37;100926.97;5099812;27;45327;-43
2022/10/17 03:20:03;;;;;;;;;7.25;6.00;;;;;19.84;63.26;100924.31;5081020;28;45403;-43
2022/10/17 03:22:28;;;;;;;;;6.50;6.50;;;;;19.82;63.27;100928.88;5091286;27;45398;-45
2022/10/17 03:24:53;;;;;;;;;8.25;6.50;;;;;19.81;63.30;100921.84;5101198;27;45389;-45
2022/10/17 03:27:19;;;;;;;;;9.00;7.00;;;;;19.77;63.33;100918.50;5094544;27;56541;-46
2022/10/17 03:29:44;;;;;;;;;11.50;7.50;;;;;19.74;63.46;100926.66;5099175;27;60961;-43
2022/10/17 03:32:09;;;;;;;;;7.50;6.00;;;;;19.73;63.08;100925.81;5098718;27;48655;-44
2022/10/17 03:34:35;;;;;;;;;11.50;8.25;;;;;19.73;62.92;100940.88;5090237;27;75541;-46
2022/10/17 03:37:00;;;;;;;;;8.75;8.00;;;;;19.72;63.10;100948.00;5103472;27;69087;-49
2022/10/17 03:39:25;;;;;;;;;10.00;7.50;;;;;19.71;63.12;100954.25;5101967;27;59675;-45
2022/10/17 03:41:51;;;;;;;;;6.00;6.00;;;;;19.70;62.67;100959.66;5079282;27;67278;-47
2022/10/17 03:44:16;;;;;;;;;7.50;6.75;;;;;19.69;63.12;100966.78;5078600;28;70113;-48
2022/10/17 03:46:41;;;;;;;;;8.25;5.75;;;;;19.68;63.05;100973.00;5088452;27;45267;-48
2022/10/17 03:49:08;;;;;;;;;9.75;7.00;;;;;19.68;63.00;100969.50;5092775;27;45504;-43
2022/10/17 03:51:34;;;;;;;;;9.00;7.00;;;;;19.69;63.02;100971.25;5088697;27;45387;-47
2022/10/17 03:54:00;;;;;;;;;7.00;7.00;;;;;19.68;62.91;100973.00;5094004;27;45609;-42
2022/10/17 03:56:25;;;;;;;;;10.25;7.00;;;;;19.68;62.59;100988.94;5101734;27;45351;-42
2022/10/17 03:58:51;;;;;;;;;9.75;6.75;;;;;19.69;62.55;100987.16;5065951;27;45491;-44
2022/10/17 04:01:17;;;;;;;;;8.50;7.50;;;;;19.68;62.58;100980.13;5101467;27;45283;-46
2022/10/17 04:03:43;;;;;;;;;10.00;6.25;;;;;19.68;62.67;100980.97;5099201;27;45391;-41
2022/10/17 04:06:11;;;;;;;;;7.00;6.50;;;;;19.67;62.58;100981.06;5094757;27;45604;-43
2022/10/17 04:08:36;;;;;;;;;7.75;7.00;;;;;19.65;62.63;100989.13;5089555;27;45388;-46
2022/10/17 04:11:04;;;;;;;;;7.75;6.25;;;;;19.67;62.65;100986.38;5099280;27;71920;-44
2022/10/17 04:13:30;;;;;;;;;8.25;5.50;;;;;19.67;62.21;100991.69;5090706;27;45301;-44
2022/10/17 04:15:58;;;;;;;;;7.75;6.00;;;;;19.66;62.60;100980.22;5074026;27;45481;-47
2022/10/17 04:18:23;;;;;;;;;5.50;5.50;;;;;19.66;62.22;100985.53;5100956;27;45319;-44
2022/10/17 04:20:49;;;;;;;;;6.75;6.00;;;;;19.67;62.07;100986.38;5095026;27;45876;-43
2022/10/17 04:23:14;;;;;;;;;6.75;6.00;;;;;19.68;62.16;100990.75;5095886;27;45483;-43
2022/10/17 04:25:40;;;;;;;;;8.00;6.00;;;;;19.69;61.83;101003.09;5102199;27;45237;-48
2022/10/17 04:28:05;;;;;;;;;8.00;6.00;;;;;19.71;62.12;101006.50;5098172;27;62500;-45
2022/10/17 04:30:30;;;;;;;;;7.75;6.00;;;;;19.71;61.97;101006.50;5048800;27;54562;-43
2022/10/17 04:32:56;;;;;;;;;8.00;7.25;;;;;19.71;61.83;101002.03;5081529;27;68613;-44
2022/10/17 04:35:21;;;;;;;;;6.75;6.00;;;;;19.73;62.07;101007.25;5096026;27;71097;-46
2022/10/17 04:37:46;;;;;;;;;6.50;6.00;;;;;19.75;61.63;101008.06;5084806;27;50003;-50
2022/10/17 04:40:12;;;;;;;;;7.00;7.00;;;;;19.75;61.50;101010.72;5102660;27;68395;-43
2022/10/17 04:42:37;;;;;;;;;7.00;5.75;;;;;19.75;61.52;101021.31;5088100;27;73673;-47
2022/10/17 04:45:03;;;;;;;;;10.75;6.50;;;;;19.73;61.86;101024.06;5090390;27;67789;-44
2022/10/17 04:47:28;;;;;;;;;8.75;8.00;;;;;19.76;61.18;101019.53;5100975;27;45281;-45
2022/10/17 04:49:54;;;;;;;;;7.50;5.75;;;;;19.75;61.64;101018.69;5097053;27;70962;-45
2022/10/17 04:52:19;;;;;;;;;7.75;6.50;;;;;19.77;61.34;101021.25;5098315;27;65055;-45
2022/10/17 04:54:44;;;;;;;;;5.00;4.25;;;;;19.78;61.62;101018.50;5098672;27;45747;-47
2022/10/17 04:57:10;;;;;;;;;9.00;6.00;;;;;19.78;61.62;101026.47;5082094;27;60246;-43
2022/10/17 04:59:35;;;;;;;;;10.75;6.75;;;;;19.79;61.05;101029.97;5097158;27;52704;-44
2022/10/17 05:02:01;;;;;;;;;9.00;8.00;;;;;19.79;61.53;101043.25;5094416;27;67144;-46
2022/10/17 05:04:26;;;;;;;;;9.50;7.00;;;;;19.80;61.60;101042.31;5100191;27;62167;-45
2022/10/17 05:06:51;;;;;;;;;7.25;5.75;;;;;19.79;60.97;101038.78;5091873;27;45442;-48
2022/10/17 05:09:17;;;;;;;;;9.50;6.00;;;;;19.80;61.41;101050.28;5095967;27;70166;-44
2022/10/17 05:11:42;;;;;;;;;7.00;7.00;;;;;19.80;60.78;101044.97;5099472;27;67672;-44
2022/10/17 05:14:08;;;;;;;;;5.75;5.75;;;;;19.80;61.03;101059.09;5081221;27;45464;-42
2022/10/17 05:16:34;;;;;;;;;8.25;7.25;;;;;19.80;61.45;101066.22;5096649;27;46786;-46
2022/10/17 05:19:00;;;;;;;;;7.75;7.00;;;;;19.80;61.44;101063.56;5099943;27;45488;-43
2022/10/17 05:21:26;;;;;;;;;7.00;6.00;;;;;19.78;61.53;101074.25;5079897;27;45486;-45
2022/10/17 05:23:52;;;;;;;;;9.75;6.00;;;;;19.78;61.26;101066.28;5093403;27;45378;-42
2022/10/17 05:26:17;;;;;;;;;5.25;4.25;;;;;19.76;61.56;101068.19;5097629;27;69395;-43
2022/10/17 05:28:42;;;;;;;;;10.00;7.00;;;;;19.74;61.84;101067.41;5095892;27;45237;-45
2022/10/17 05:31:09;;;;;;;;;7.00;7.00;;;;;19.73;61.95;101066.56;5092085;27;74075;-47
2022/10/17 05:33:35;;;;;;;;;11.00;7.00;;;;;19.72;61.95;101063.97;5086918;27;45747;-45
2022/10/17 05:36:00;;;;;;;;;8.25;5.00;;;;;19.71;61.78;101063.13;5095611;27;45415;-43
2022/10/17 05:38:26;;;;;;;;;12.75;7.75;;;;;19.71;62.16;101076.41;5099947;27;45508;-43
2022/10/17 05:40:57;;;;;;;;;7.25;5.50;;;;;19.71;61.85;101079.06;5090755;27;45435;-46
2022/10/17 05:43:22;;;;;;;;;64.50;51.50;;;;;19.70;61.82;101077.31;5082728;27;45440;-44
2022/10/17 05:45:47;;;;;;;;;60.00;46.50;;;;;19.69;61.98;101067.66;5098189;27;45820;-47
2022/10/17 05:48:13;;;;;;;;;9.50;8.00;;;;;19.68;61.85;101073.06;5089492;27;67875;-45
2022/10/17 05:50:38;;;;;;;;;6.50;6.50;;;;;19.69;62.04;101078.28;5090750;27;67026;-48
2022/10/17 05:53:04;;;;;;;;;9.00;8.00;;;;;19.69;61.93;101078.28;5099581;27;45335;-48
2022/10/17 05:55:29;;;;;;;;;6.00;6.00;;;;;19.67;61.55;101066.91;5093716;27;55053;-48
2022/10/17 05:57:54;;;;;;;;;8.50;6.00;;;;;19.65;61.88;101078.56;5087437;27;62769;-44
2022/10/17 06:00:20;;;;;;;;;9.00;8.25;;;;;19.65;62.24;101065.28;5089161;27;46215;-46
2022/10/17 06:02:45;;;;;;;;;12.00;9.75;;;;;19.64;62.32;101069.75;5097205;27;52315;-45
2022/10/17 06:05:11;;;;;;;;;8.00;7.50;;;;;19.64;62.10;101060.94;5093342;27;45469;-43
2022/10/17 06:07:37;;;;;;;;;7.75;7.00;;;;;19.63;62.01;101056.56;5082886;27;45303;-42
2022/10/17 06:10:02;;;;;;;;;9.75;7.00;;;;;19.63;62.36;101064.53;5098341;27;74032;-47
2022/10/17 06:12:28;;;;;;;;;7.50;6.25;;;;;19.62;62.24;101049.53;5093117;27;45525;-45
2022/10/17 06:14:53;;;;;;;;;8.25;7.25;;;;;19.56;62.51;101040.13;5097870;27;53928;-42
2022/10/17 06:17:18;;;;;;;;;9.00;6.25;;;;;19.54;62.47;101058.81;5097309;27;57860;-45
2022/10/17 06:19:44;;;;;;;;;9.00;6.00;;;;;19.51;62.64;101066.97;5097037;27;68029;-44
2022/10/17 06:22:09;;;;;;;;;7.25;6.25;;;;;19.50;62.65;101065.25;5096608;27;59282;-44
2022/10/17 06:24:34;;;;;;;;;9.75;8.50;;;;;19.51;62.43;101076.72;5088952;27;68307;-42
2022/10/17 06:27:00;;;;;;;;;6.75;6.25;;;;;19.50;62.57;101072.38;5094526;27;50302;-44
2022/10/17 06:29:25;;;;;;;;;9.25;8.00;;;;;19.49;62.63;101076.78;5082449;27;66367;-51
2022/10/17 06:31:51;;;;;;;;;9.50;7.75;;;;;19.48;62.53;101095.50;5090156;27;59305;-42
2022/10/17 06:34:16;;;;;;;;;10.25;7.75;;;;;19.50;62.97;101101.56;5090941;27;46122;-44
2022/10/17 06:36:41;;;;;;;;;10.75;7.50;;;;;19.50;62.74;101106.88;5092410;27;45615;-41
2022/10/17 06:39:07;;;;;;;;;8.25;5.25;;;;;19.52;62.45;101110.28;5078259;27;45367;-43
2022/10/17 06:41:32;;;;;;;;;8.50;7.00;;;;;19.54;62.67;101114.56;5087588;27;45728;-48
2022/10/17 06:43:58;;;;;;;;;8.00;7.75;;;;;19.55;62.94;101112.78;5094756;27;45247;-45
2022/10/17 06:46:25;;;;;;;;;8.00;8.00;;;;;19.54;62.49;101113.72;5093580;27;45454;-44
2022/10/17 06:48:51;;;;;;;;;9.50;7.50;;;;;19.56;62.75;101125.09;5092747;27;46494;-46
2022/10/17 06:51:16;;;;;;;;;10.00;8.75;;;;;19.56;63.02;101122.44;5098119;27;45471;-47
2022/10/17 06:53:42;;;;;;;;;11.00;8.50;;;;;19.57;62.85;101145.41;5085826;27;45322;-45
2022/10/17 06:56:09;;;;;;;;;6.75;6.00;;;;;19.58;62.93;101146.25;5093345;27;59816;-44
2022/10/17 06:58:37;;;;;;;;;8.25;6.00;;;;;19.58;63.02;101140.94;5096841;27;45457;-42
2022/10/17 07:01:12;;;;;;;;;9.00;8.00;;;;;19.59;63.25;101151.47;5099080;27;45286;-42
2022/10/17 07:03:39;;;;;;;;;12.50;8.00;;;;;19.60;62.81;101153.19;5075160;27;45466;-42
2022/10/17 07:06:04;;;;;;;;;11.50;8.75;;;;;19.62;62.70;101153.94;5101349;27;45277;-43
2022/10/17 07:08:29;;;;;;;;;17.25;9.00;;;;;19.64;62.77;101167.13;5102932;27;45865;-42
2022/10/17 07:10:55;;;;;;;;;10.25;9.25;;;;;19.64;62.75;101173.28;5098662;27;71571;-42
2022/10/17 07:13:21;;;;;;;;;433.00;344.00;;;;;19.66;62.96;101183.84;5101133;27;45335;-42
2022/10/17 07:15:46;;;;;;;;;31.00;20.75;;;;;19.66;62.91;101181.19;5091636;27;49773;-46
2022/10/17 07:18:12;;;;;;;;;22.25;17.50;;;;;19.67;63.14;101193.50;5083876;27;45509;-47
2022/10/17 07:20:37;;;;;;;;;12.50;10.25;;;;;19.68;63.22;101198.72;5084178;27;45352;-45
2022/10/17 07:23:02;;;;;;;;;8.50;7.00;;;;;19.69;63.23;101208.41;5100849;27;45303;-44
2022/10/17 07:25:28;;;;;;;;;10.75;8.00;;;;;19.69;63.29;101221.69;5077606;28;45370;-44
2022/10/17 07:27:54;;;;;;;;;9.00;6.00;;;;;19.70;63.24;101226.03;5097081;27;46102;-45
2022/10/17 07:30:20;;;;;;;;;11.25;9.00;;;;;19.68;62.90;101222.63;5088261;27;46675;-47
2022/10/17 07:32:45;;;;;;;;;7.50;7.50;;;;;19.70;62.88;101235.81;5090385;27;45552;-46
2022/10/17 07:35:11;;;;;;;;;12.25;8.25;;;;;19.71;63.22;101243.69;5080490;28;45185;-44
2022/10/17 07:37:37;;;;;;;;;11.25;8.25;;;;;19.73;63.33;101255.09;5083410;27;45387;-46
2022/10/17 07:40:05;;;;;;;;;9.00;6.25;;;;;19.73;63.20;101248.91;5090854;27;45224;-42
2022/10/17 07:42:31;;;;;;;;;7.75;7.00;;;;;19.74;63.30;101258.59;5112101;27;45296;-44
2022/10/17 07:44:56;;;;;;;;;6.50;6.50;;;;;19.73;62.72;101263.06;5097293;27;45469;-48
2022/10/17 07:47:22;;;;;;;;;8.50;7.75;;;;;19.74;63.22;101261.25;5096716;27;46255;-44
2022/10/17 07:49:47;;;;;;;;;8.00;6.25;;;;;19.76;62.78;101270.03;5094630;27;45544;-43
2022/10/17 07:52:13;;;;;;;;;8.50;6.75;;;;;19.78;62.92;101281.41;5078119;28;68083;-44
2022/10/17 07:54:39;;;;;;;;;7.25;6.25;;;;;19.79;62.89;101283.09;5077139;27;45294;-44
2022/10/17 07:57:05;;;;;;;;;8.25;7.50;;;;;19.81;62.76;101285.69;5094168;27;46190;-45
2022/10/17 07:59:31;;;;;;;;;9.00;8.00;;;;;19.83;62.89;101297.06;5100629;27;45240;-44
2022/10/17 08:01:58;;;;;;;;;10.25;8.00;;;;;19.84;62.99;101290.81;5099110;27;45526;-46
2022/10/17 08:04:23;;;;;;;;;6.25;6.25;;;;;19.88;62.66;101305.63;5100653;27;45605;-46
2022/10/17 08:06:49;;;;;;;;;9.00;8.00;;;;;19.88;62.86;101303.84;5086842;27;45648;-45
2022/10/17 08:09:14;;;;;;;;;8.25;7.00;;;;;19.92;62.90;101312.50;5089111;27;69875;-47
2022/10/17 08:11:40;;;;;;;;;11.75;7.50;;;;;19.91;62.68;101316.94;5099679;27;45649;-47
2022/10/17 08:14:05;;;;;;;;;10.50;9.25;;;;;19.92;63.13;101318.66;5092869;27;45335;-47
2022/10/17 08:16:31;;;;;;;;;6.00;5.00;;;;;19.92;62.91;101318.66;5071340;27;72313;-43
2022/10/17 08:18:56;;;;;;;;;9.00;7.00;;;;;19.93;63.01;101324.81;5088426;27;68020;-47
2022/10/17 08:21:21;;;;;;;;;11.00;8.75;;;;;19.95;63.18;101330.06;5097569;27;60949;-45
2022/10/17 08:23:46;;;;;;;;;8.25;7.00;;;;;19.94;62.73;101330.97;5090488;27;65635;-44
2022/10/17 08:26:15;;;;;;;;;15.50;9.75;;;;;19.96;63.03;101332.63;5084842;27;72957;-43
2022/10/17 08:28:41;;;;;;;;;11.25;8.75;;;;;19.98;62.85;101336.06;5079723;28;45606;-44
2022/10/17 08:31:09;;;;;;;;;10.50;9.00;;;;;20.00;63.01;101335.97;5088343;27;45347;-44
2022/10/17 08:33:34;;;;;;;;;11.25;10.00;;;;;20.03;63.51;101338.47;5104794;27;45239;-44
2022/10/17 08:36:00;;;;;;;;;8.25;7.75;;;;;20.07;63.10;101339.97;5093441;27;72262;-42
2022/10/17 08:38:28;;;;;;;;;9.25;6.25;;;;;20.10;63.06;101342.47;5093454;27;45504;-45
2022/10/17 08:40:56;;;;;;;;;7.25;6.00;;;;;20.11;62.63;101354.78;5111419;27;45394;-43
2022/10/17 08:43:33;;;;;;;;;13.25;9.00;;;;;20.13;63.11;101360.03;5076628;27;45612;-43
2022/10/17 08:46:03;;;;;;;;;9.25;7.75;;;;;20.15;63.00;101359.00;5098834;27;45216;-44
2022/10/17 08:48:33;;;;;;;;;10.25;8.25;;;;;20.17;63.04;101370.41;5101132;27;45768;-43
2022/10/17 08:51:09;;;;;;;;;9.75;8.50;;;;;20.18;62.62;101365.94;5095325;27;45497;-44
2022/10/17 08:53:52;;;;;;;;;12.50;7.50;;;;;20.21;62.53;101361.31;5076133;27;45407;-47
2022/10/17 08:56:17;;;;;;;;;10.00;8.50;;;;;20.24;63.06;101374.44;5081606;27;46229;-47
2022/10/17 08:58:43;;;;;;;;;11.25;8.25;;;;;20.27;62.15;101379.56;5090441;27;45606;-44
2022/10/17 09:01:17;;;;;;;;;16.75;10.00;;;;;20.30;62.62;101378.53;5099948;27;69144;-45
2022/10/17 09:04:06;;;;;;;;;9.00;7.25;;;;;20.31;62.98;101382.91;5101134;27;45251;-44
2022/10/17 09:06:36;;;;;;;;;11.75;8.25;;;;;20.34;62.47;101390.69;5085843;27;46289;-46
2022/10/17 09:09:01;;;;;;;;;12.50;10.25;;;;;20.35;62.87;101389.75;5093167;27;45508;-44
2022/10/17 09:11:42;;;;;;;;;9.67;8.00;;;;;20.35;62.56;101397.72;5072724;27;45286;-46
2022/10/17 09:14:36;;;;;;;;;13.50;12.25;;;;;20.37;62.55;101405.63;5098626;27;45350;-46
2022/10/17 09:17:16;;;;;;;;;10.75;9.75;;;;;20.37;63.10;101418.91;5093088;27;47245;-45
2022/10/17 09:19:58;;;;;;;;;13.00;7.50;;;;;20.38;62.99;101418.81;5073567;27;45562;-46
2022/10/17 09:22:28;;;;;;;;;8.25;7.25;;;;;20.39;62.80;101431.16;5076885;27;45447;-46
2022/10/17 09:24:57;;;;;;;;;8.00;6.75;;;;;20.42;63.10;101432.81;5077013;27;45609;-43
2022/10/17 09:27:26;;;;;;;;;8.00;6.75;;;;;20.43;62.70;101439.81;5062707;27;45656;-44
2022/10/17 09:30:09;;;;;;;;;10.50;6.25;;;;;20.42;63.43;101448.75;5079509;27;45403;-46
2022/10/17 09:32:36;;;;;;;;;9.50;9.00;;;;;20.42;63.08;101448.75;5089827;27;45714;-43
2022/10/17 09:35:02;;;;;;;;;12.00;8.75;;;;;20.41;63.13;101453.19;5064278;28;47712;-43
2022/10/17 09:37:30;;;;;;;;;8.25;6.50;;;;;20.41;63.16;101457.66;5076120;27;46650;-43
2022/10/17 09:39:55;;;;;;;;;12.00;8.75;;;;;20.41;63.82;101465.63;5084556;27;45923;-47
2022/10/17 09:42:24;;;;;;;;;12.00;8.75;;;;;20.40;63.70;101466.59;5081834;27;45409;-43
2022/10/17 09:45:10;;;;;;;;;10.50;8.75;;;;;20.38;63.68;101468.47;5061848;27;45411;-42
2022/10/17 09:48:05;;;;;;;;;8.75;7.00;;;;;20.38;63.97;101472.00;5074042;27;45435;-44
2022/10/17 09:50:32;;;;;;;;;9.25;7.25;;;;;20.37;64.14;101472.94;5078233;27;48034;-43
2022/10/17 09:53:22;;;;;;;;;11.25;8.00;;;;;20.35;63.88;101466.00;5077638;27;45669;-42
2022/10/17 09:55:56;;;;;;;;;9.25;7.75;;;;;20.33;64.73;101473.16;5083126;27;45856;-45
2022/10/17 09:58:22;;;;;;;;;8.25;7.00;;;;;20.30;64.57;101469.75;5086238;27;45466;-43
2022/10/17 10:00:48;;;;;;;;;7.75;5.50;;;;;20.27;65.19;101469.94;5060418;28;45507;-43
2022/10/17 10:03:21;;;;;;;;;10.25;8.25;;;;;20.30;65.41;101472.41;5090193;27;45565;-47
2022/10/17 10:06:14;;;;;;;;;14.00;11.25;;;;;20.32;65.13;101474.13;5094367;27;45372;-42
2022/10/17 10:08:59;;;;;;;;;16.75;9.00;;;;;20.30;65.23;101472.41;5088075;27;47178;-43
2022/10/17 10:11:51;;;;;;;;;11.50;9.25;;;;;20.31;64.99;101470.63;5097738;27;45798;-44
2022/10/17 10:14:38;;;;;;;;;9.75;8.50;;;;;20.32;65.32;101476.78;5092605;27;45338;-47
2022/10/17 10:17:23;;;;;;;;;10.00;8.75;;;;;20.32;65.42;101474.97;5092091;27;45314;-46
2022/10/17 10:19:50;;;;;;;;;13.75;11.00;;;;;20.33;65.91;101474.06;5082246;27;46775;-48
2022/10/17 10:22:18;;;;;;;;;16.50;13.00;;;;;20.35;65.60;101487.25;5097899;27;45963;-47
2022/10/17 10:24:43;;;;;;;;;10.25;10.25;;;;;20.35;66.18;101492.59;5067731;27;45640;-49
2022/10/17 10:27:15;;;;;;;;;15.25;11.00;;;;;20.35;65.77;101492.59;5092721;27;71162;-47
2022/10/17 10:29:42;;;;;;;;;13.50;12.50;;;;;20.34;65.93;101499.69;5090940;27;45337;-48
2022/10/17 10:32:21;;;;;;;;;14.50;9.75;;;;;20.35;65.66;101511.19;5067917;27;45464;-45
2022/10/17 10:34:52;;;;;;;;;13.00;11.25;;;;;20.35;66.39;101525.31;5067351;27;45592;-44
2022/10/17 10:37:21;;;;;;;;;12.00;9.75;;;;;20.35;66.06;101530.66;5050398;28;45439;-45
2022/10/17 10:39:56;;;;;;;;;12.25;10.25;;;;;20.37;65.92;101536.72;5051601;28;46460;-43
2022/10/17 10:42:25;;;;;;;;;11.25;10.75;;;;;20.36;66.30;101531.50;5053025;28;45514;-44
2022/10/17 10:44:51;;;;;;;;;11.75;11.50;;;;;20.38;66.17;101535.81;5058242;28;45435;-47
2022/10/17 10:47:21;;;;;;;;;12.50;12.00;;;;;20.41;66.25;101538.25;5055330;28;45297;-50
2022/10/17 10:49:47;;;;;;;;;21.00;14.75;;;;;20.42;66.60;101537.34;5055463;28;46086;-49
2022/10/17 10:52:40;;;;;;;;;17.25;14.25;;;;;20.43;66.54;101546.16;5062000;28;45233;-47
2022/10/17 10:55:22;;;;;;;;;15.00;14.25;;;;;20.43;66.95;101556.78;5047405;28;45496;-44
2022/10/17 10:57:50;;;;;;;;;16.75;13.25;;;;;20.38;66.69;101557.06;5053828;28;45731;-46
2022/10/17 11:00:20;;;;;;;;;22.50;17.25;;;;;20.42;66.33;101555.94;5060484;28;46393;-44
2022/10/17 11:02:58;;;;;;;;;22.75;18.25;;;;;20.43;66.58;101570.09;5057551;28;45765;-43
2022/10/17 11:05:48;;;;;;;;;25.50;18.75;;;;;20.43;67.04;101568.31;5044465;28;45816;-47
2022/10/17 11:08:28;;;;;;;;;23.50;18.00;;;;;20.43;66.77;101570.09;5045485;28;45593;-45
2022/10/17 11:11:18;;;;;;;;;16.25;16.25;;;;;20.44;66.70;101553.22;5044937;28;45427;-46
2022/10/17 11:13:52;;;;;;;;;22.00;20.00;;;;;20.46;66.92;101541.53;5060754;28;45733;-46
2022/10/17 11:16:20;;;;;;;;;21.25;19.00;;;;;20.45;67.30;101545.16;5059897;28;45396;-44
2022/10/17 11:18:55;;;;;;;;;17.25;17.25;;;;;20.47;67.13;101548.56;5054750;28;47145;-46
2022/10/17 11:21:46;;;;;;;;;19.50;15.50;;;;;20.49;67.35;101557.31;5061720;28;45601;-45
2022/10/17 11:24:15;;;;;;;;;23.50;17.00;;;;;20.52;67.24;101561.59;5052170;28;45810;-47
2022/10/17 11:26:59;;;;;;;;;23.00;20.25;;;;;20.55;67.29;101568.56;5056418;28;45640;-47
2022/10/17 11:29:27;;;;;;;;;24.25;21.00;;;;;20.57;67.02;101579.97;5053992;28;45299;-49
2022/10/17 11:31:56;;;;;;;;;26.25;23.25;;;;;20.56;67.33;101573.81;5060172;28;45987;-52